Time;durP1;ratioP1;P1;durP2;ratioP2;P2;SDS_P1;SDS_P2;PMS_P1;PMS_P2;Temp;Humidity;BMP_temperature;BMP_pressure;BME280_temperature;BME280_humidity;BME280_pressure;Samples;Min_cycle;Max_cycle;Signal;HPM_P1;HPM_P2
2022/10/09 00:01:08;;;;;;;11.35;3.45;;;9.30;99.90;;;;;;5016905;28;20045;-71
2022/10/09 00:03:35;;;;;;;11.98;3.10;;;9.30;99.90;;;;;;5024939;28;20064;-72
2022/10/09 00:06:01;;;;;;;9.32;2.50;;;9.30;99.90;;;;;;5032292;28;20143;-71
2022/10/09 00:08:27;;;;;;;9.15;2.70;;;9.30;99.90;;;;;;5022560;28;20064;-71
2022/10/09 00:10:53;;;;;;;10.32;2.60;;;9.20;99.90;;;;;;5023018;28;20049;-71
2022/10/09 00:13:19;;;;;;;8.40;2.63;;;9.20;99.90;;;;;;5025534;28;20041;-71
2022/10/09 00:15:45;;;;;;;8.95;2.70;;;9.10;99.90;;;;;;5020028;28;20267;-71
2022/10/09 00:18:13;;;;;;;8.75;2.88;;;9.10;99.90;;;;;;5025386;28;20045;-71
2022/10/09 00:20:41;;;;;;;8.88;2.70;;;9.10;99.90;;;;;;5016387;28;20088;-71
2022/10/09 00:23:09;;;;;;;9.25;2.25;;;9.00;99.90;;;;;;5023504;28;20550;-71
2022/10/09 00:25:35;;;;;;;8.15;2.17;;;9.00;99.90;;;;;;5019552;28;20064;-71
2022/10/09 00:28:01;;;;;;;7.63;2.38;;;9.00;99.90;;;;;;5023469;28;20073;-70
2022/10/09 00:30:27;;;;;;;7.30;1.90;;;8.90;99.90;;;;;;5017005;28;20049;-71
2022/10/09 00:32:53;;;;;;;10.77;2.63;;;8.90;99.90;;;;;;5015139;28;20045;-71
2022/10/09 00:35:20;;;;;;;7.55;2.30;;;8.90;99.90;;;;;;5009298;28;20051;-71
2022/10/09 00:37:47;;;;;;;11.52;2.60;;;8.90;99.90;;;;;;5013389;28;20053;-71
2022/10/09 00:40:14;;;;;;;8.38;2.35;;;8.90;99.90;;;;;;5021492;28;20087;-71
2022/10/09 00:42:40;;;;;;;6.82;2.03;;;8.90;99.90;;;;;;5010028;28;20079;-71
2022/10/09 00:45:06;;;;;;;9.88;2.80;;;8.80;99.90;;;;;;5012589;28;20054;-70
2022/10/09 00:47:37;;;;;;;7.35;2.25;;;8.80;99.90;;;;;;5018086;28;20038;-71
2022/10/09 00:50:12;;;;;;;7.35;2.47;;;8.80;99.90;;;;;;5013051;28;20120;-70
2022/10/09 00:52:38;;;;;;;10.77;2.40;;;8.90;99.90;;;;;;5015821;28;20048;-71
2022/10/09 00:55:05;;;;;;;5.45;2.28;;;8.80;99.90;;;;;;5014096;28;20700;-70
2022/10/09 00:57:32;;;;;;;10.88;2.33;;;8.80;99.90;;;;;;5014601;28;20235;-70
2022/10/09 01:00:00;;;;;;;11.40;2.42;;;8.70;99.90;;;;;;5014824;28;20501;-70
2022/10/09 01:02:26;;;;;;;8.10;2.85;;;8.70;99.90;;;;;;5020616;28;20064;-70
2022/10/09 01:04:52;;;;;;;7.60;2.60;;;8.80;99.90;;;;;;5019869;28;20464;-71
2022/10/09 01:07:46;;;;;;;11.50;2.88;;;8.80;99.90;;;;;;5015026;28;20118;-71
2022/10/09 01:10:29;;;;;;;6.45;2.30;;;8.70;99.90;;;;;;5021720;28;20111;-70
2022/10/09 01:13:19;;;;;;;7.63;2.72;;;8.70;99.90;;;;;;5018926;28;20057;-70
2022/10/09 01:16:01;;;;;;;7.97;2.45;;;8.60;99.90;;;;;;5012896;28;20401;-70
2022/10/09 01:18:31;;;;;;;9.68;2.70;;;8.60;99.90;;;;;;5016439;28;20064;-70
2022/10/09 01:21:10;;;;;;;6.28;2.25;;;8.60;99.90;;;;;;5013967;28;20103;-71
2022/10/09 01:24:11;;;;;;;9.00;2.95;;;8.60;99.90;;;;;;5021402;28;20046;-71
2022/10/09 01:26:57;;;;;;;10.32;2.65;;;8.60;99.90;;;;;;5019123;28;20042;-71
2022/10/09 01:29:28;;;;;;;7.60;2.70;;;8.50;99.90;;;;;;5018537;28;20049;-71
2022/10/09 01:31:56;;;;;;;8.13;2.70;;;8.50;99.90;;;;;;5016530;28;20124;-71
2022/10/09 01:34:22;;;;;;;6.65;2.63;;;8.50;99.90;;;;;;5010199;28;20052;-71
2022/10/09 01:36:50;;;;;;;8.43;2.83;;;8.50;99.90;;;;;;5026752;28;20432;-70
2022/10/09 01:39:18;;;;;;;8.77;3.03;;;8.50;99.90;;;;;;5028660;28;20044;-71
2022/10/09 01:41:47;;;;;;;9.90;2.92;;;8.40;99.90;;;;;;5032632;28;20123;-71
2022/10/09 01:44:19;;;;;;;11.18;3.20;;;8.40;99.90;;;;;;5021227;28;20175;-70
2022/10/09 01:46:45;;;;;;;10.07;2.75;;;8.40;99.90;;;;;;5014069;28;20507;-71
2022/10/09 01:49:35;;;;;;;9.25;2.72;;;8.40;99.90;;;;;;5017008;28;20050;-71
2022/10/09 01:52:09;;;;;;;10.18;3.20;;;8.40;99.90;;;;;;5023115;28;20161;-71
2022/10/09 01:54:52;;;;;;;11.38;3.50;;;8.40;99.90;;;;;;5015716;28;20049;-71
2022/10/09 01:57:27;;;;;;;10.50;2.88;;;8.50;99.90;;;;;;5021188;28;20326;-71
2022/10/09 01:59:54;;;;;;;13.10;2.80;;;8.40;99.90;;;;;;5008790;28;20503;-71
2022/10/09 02:02:21;;;;;;;9.43;3.05;;;8.40;99.90;;;;;;5033562;28;20048;-71
2022/10/09 02:04:48;;;;;;;8.98;2.88;;;8.40;99.90;;;;;;5030125;28;20045;-71
2022/10/09 02:07:15;;;;;;;8.38;3.17;;;8.30;99.90;;;;;;5026781;28;20084;-71
2022/10/09 02:09:42;;;;;;;6.78;2.33;;;8.30;99.90;;;;;;5026653;28;20061;-71
2022/10/09 02:12:10;;;;;;;8.77;3.45;;;8.30;99.90;;;;;;5031604;28;20044;-70
2022/10/09 02:14:36;;;;;;;11.65;2.80;;;8.30;99.90;;;;;;5030306;28;20400;-71
2022/10/09 02:17:07;;;;;;;8.70;2.88;;;8.30;99.90;;;;;;5024764;28;20041;-71
2022/10/09 02:19:35;;;;;;;9.88;2.95;;;8.30;99.90;;;;;;5028447;28;20048;-71
2022/10/09 02:22:15;;;;;;;10.13;2.70;;;8.30;99.90;;;;;;5030083;28;20053;-71
2022/10/09 02:24:41;;;;;;;9.18;3.00;;;8.20;99.90;;;;;;5028335;28;20060;-71
2022/10/09 02:27:08;;;;;;;9.48;3.28;;;8.20;99.90;;;;;;5023315;28;20111;-70
2022/10/09 02:29:36;;;;;;;5.28;2.90;;;8.20;99.90;;;;;;5021904;28;20132;-71
2022/10/09 02:32:02;;;;;;;6.55;2.75;;;8.30;99.90;;;;;;5027749;28;20050;-71
2022/10/09 02:34:28;;;;;;;10.18;3.50;;;8.20;99.90;;;;;;5024095;28;20511;-70
2022/10/09 02:36:53;;;;;;;8.57;3.10;;;8.20;99.90;;;;;;5026055;28;20038;-70
2022/10/09 02:39:19;;;;;;;7.80;2.75;;;8.20;99.90;;;;;;5017219;28;20041;-71
2022/10/09 02:41:44;;;;;;;8.23;3.00;;;8.10;99.90;;;;;;5030807;28;20092;-71
2022/10/09 02:44:10;;;;;;;5.53;2.75;;;8.10;99.90;;;;;;5022141;28;20041;-70
2022/10/09 02:46:37;;;;;;;9.25;3.47;;;8.00;99.90;;;;;;5018307;28;20128;-70
2022/10/09 02:49:03;;;;;;;9.90;3.25;;;8.10;99.90;;;;;;5031402;28;20052;-70
2022/10/09 02:51:29;;;;;;;12.10;3.22;;;8.10;99.90;;;;;;5009250;28;20057;-71
2022/10/09 02:53:55;;;;;;;6.03;2.90;;;8.00;99.90;;;;;;5030393;28;20045;-71
2022/10/09 02:56:22;;;;;;;6.68;3.30;;;7.90;99.90;;;;;;5023554;28;20115;-71
2022/10/09 02:58:48;;;;;;;10.77;3.30;;;8.00;99.90;;;;;;5020290;28;20447;-71
2022/10/09 03:01:14;;;;;;;6.72;3.50;;;7.90;99.90;;;;;;5024574;28;20496;-71
2022/10/09 03:03:40;;;;;;;6.53;3.20;;;8.00;99.90;;;;;;5028231;28;20072;-71
2022/10/09 03:06:08;;;;;;;8.38;3.50;;;7.90;99.90;;;;;;5021424;28;20090;-71
2022/10/09 03:08:35;;;;;;;6.65;3.10;;;7.90;99.90;;;;;;5027126;28;20121;-71
2022/10/09 03:11:01;;;;;;;9.85;3.47;;;8.00;99.90;;;;;;5026434;28;20432;-71
2022/10/09 03:13:26;;;;;;;8.20;3.78;;;7.90;99.90;;;;;;5018744;28;20049;-71
2022/10/09 03:15:52;;;;;;;14.07;4.05;;;7.90;99.90;;;;;;5015869;28;20472;-72
2022/10/09 03:18:18;;;;;;;15.07;3.97;;;8.00;99.90;;;;;;5018901;28;20114;-71
2022/10/09 03:20:44;;;;;;;8.90;3.88;;;7.90;99.90;;;;;;5020918;28;20041;-71
2022/10/09 03:23:10;;;;;;;6.78;3.88;;;7.90;99.90;;;;;;5027006;28;20410;-71
2022/10/09 03:25:35;;;;;;;12.48;3.55;;;7.90;99.90;;;;;;5026225;28;20107;-71
2022/10/09 03:28:01;;;;;;;10.93;3.88;;;7.90;99.90;;;;;;5016549;28;20041;-71
2022/10/09 03:30:27;;;;;;;9.20;3.58;;;7.90;99.90;;;;;;5020898;28;20038;-71
2022/10/09 03:32:52;;;;;;;10.93;3.63;;;7.90;99.90;;;;;;5019143;28;20079;-71
2022/10/09 03:35:18;;;;;;;8.05;3.30;;;7.90;99.90;;;;;;5021159;28;20033;-71
2022/10/09 03:37:44;;;;;;;6.25;3.35;;;7.80;99.90;;;;;;5024795;28;20506;-71
2022/10/09 03:40:09;;;;;;;8.43;3.35;;;7.80;99.90;;;;;;5017246;28;20358;-71
2022/10/09 03:42:35;;;;;;;9.30;3.45;;;7.70;99.90;;;;;;5023100;28;20136;-71
2022/10/09 03:45:03;;;;;;;6.88;3.30;;;7.80;99.90;;;;;;5022141;28;20045;-71
2022/10/09 03:47:30;;;;;;;8.88;4.30;;;7.70;99.90;;;;;;5019884;28;20186;-71
2022/10/09 03:49:55;;;;;;;7.00;3.88;;;7.60;99.90;;;;;;5024445;28;20041;-71
2022/10/09 03:52:21;;;;;;;8.80;4.50;;;7.70;99.90;;;;;;5011448;28;20046;-71
2022/10/09 03:54:46;;;;;;;7.25;3.83;;;7.60;99.90;;;;;;5024364;28;20068;-71
2022/10/09 03:57:12;;;;;;;9.75;4.00;;;7.60;99.90;;;;;;5024012;28;20405;-71
2022/10/09 03:59:38;;;;;;;7.65;4.13;;;7.60;99.90;;;;;;5023065;28;20420;-71
2022/10/09 04:02:03;;;;;;;11.55;4.85;;;7.60;99.90;;;;;;5023250;28;20115;-71
2022/10/09 04:04:29;;;;;;;8.82;4.63;;;7.70;99.90;;;;;;5025044;28;20120;-71
2022/10/09 04:06:54;;;;;;;12.95;5.53;;;7.60;99.90;;;;;;5015867;28;20506;-71
2022/10/09 04:09:20;;;;;;;9.93;5.13;;;7.60;99.90;;;;;;5024321;28;20037;-71
2022/10/09 04:11:46;;;;;;;9.30;5.50;;;7.60;99.90;;;;;;5011665;28;20064;-71
2022/10/09 04:14:11;;;;;;;12.98;6.28;;;7.60;99.90;;;;;;5020188;28;20447;-71
2022/10/09 04:16:37;;;;;;;12.90;5.22;;;7.60;99.90;;;;;;5026202;28;20068;-71
2022/10/09 04:19:03;;;;;;;60.40;6.72;;;7.50;99.90;;;;;;5026781;28;20046;-72
2022/10/09 04:21:28;;;;;;;75.45;7.60;;;7.60;99.90;;;;;;5024092;28;20106;-71
2022/10/09 04:23:54;;;;;;;60.70;7.10;;;7.60;99.90;;;;;;5022563;28;20037;-71
2022/10/09 04:26:20;;;;;;;43.67;6.28;;;7.60;99.90;;;;;;5022539;28;20041;-72
2022/10/09 04:28:45;;;;;;;53.67;6.97;;;7.50;99.90;;;;;;5018867;28;20389;-71
2022/10/09 04:31:11;;;;;;;69.68;7.15;;;7.50;99.90;;;;;;5014306;28;20037;-72
2022/10/09 04:33:36;;;;;;;93.00;8.43;;;7.40;99.90;;;;;;5018690;28;20041;-72
2022/10/09 04:36:02;;;;;;;99.63;7.55;;;7.40;99.90;;;;;;5023029;28;20471;-72
2022/10/09 04:38:30;;;;;;;118.45;8.20;;;7.40;99.90;;;;;;5020983;28;20405;-72
2022/10/09 04:40:57;;;;;;;50.13;6.40;;;7.40;99.90;;;;;;5017181;28;20046;-72
2022/10/09 04:43:23;;;;;;;61.25;7.30;;;7.30;99.90;;;;;;5015968;28;20046;-72
2022/10/09 04:48:24;;;;;;;56.25;6.50;;;7.30;99.90;;;;;;5152870;22;20041;-71
2022/10/09 04:50:50;;;;;;;33.05;7.07;;;7.20;99.90;;;;;;5026804;28;20096;-71
2022/10/09 04:53:16;;;;;;;26.02;6.68;;;7.30;99.90;;;;;;5019530;28;20049;-71
2022/10/09 04:55:42;;;;;;;23.67;5.90;;;7.20;99.90;;;;;;5022838;28;20046;-72
2022/10/09 04:58:09;;;;;;;14.38;6.30;;;7.10;99.90;;;;;;5010231;28;20045;-71
2022/10/09 05:00:42;;;;;;;9.63;5.97;;;7.20;99.90;;;;;;5010991;28;20429;-72
2022/10/09 05:03:08;;;;;;;11.60;6.35;;;7.20;99.90;;;;;;5016226;28;20476;-71
2022/10/09 05:05:34;;;;;;;12.43;6.63;;;7.20;99.90;;;;;;5019929;28;20443;-71
2022/10/09 05:07:59;;;;;;;14.13;7.07;;;7.10;99.90;;;;;;5017848;28;20050;-71
2022/10/09 05:10:25;;;;;;;13.35;6.30;;;7.10;99.90;;;;;;5025708;28;20136;-71
2022/10/09 05:12:51;;;;;;;13.45;6.50;;;7.20;99.90;;;;;;5020514;28;20042;-72
2022/10/09 05:15:18;;;;;;;12.43;6.72;;;7.20;99.90;;;;;;5022073;28;20543;-71
2022/10/09 05:17:44;;;;;;;14.90;6.18;;;7.10;99.90;;;;;;5024416;28;20053;-72
2022/10/09 05:20:10;;;;;;;18.45;6.68;;;7.10;99.90;;;;;;5021199;28;20049;-70
2022/10/09 05:22:36;;;;;;;29.42;7.30;;;7.10;99.90;;;;;;5025661;28;20045;-71
2022/10/09 05:25:02;;;;;;;28.17;7.15;;;7.00;99.90;;;;;;5022521;28;20417;-71
2022/10/09 05:27:27;;;;;;;29.48;6.65;;;6.90;99.90;;;;;;5023226;28;20056;-71
2022/10/09 05:29:53;;;;;;;22.98;6.93;;;6.90;99.90;;;;;;5021540;28;20139;-71
2022/10/09 05:32:18;;;;;;;20.80;6.63;;;6.90;99.90;;;;;;5024614;28;20253;-72
2022/10/09 05:34:44;;;;;;;13.98;6.57;;;6.90;99.90;;;;;;5021977;28;20037;-71
2022/10/09 05:37:10;;;;;;;11.32;6.63;;;6.90;99.90;;;;;;5020949;28;20042;-72
2022/10/09 05:39:37;;;;;;;15.75;6.40;;;6.90;99.90;;;;;;5022413;28;20068;-72
2022/10/09 05:42:03;;;;;;;14.00;6.57;;;6.90;99.90;;;;;;5020600;28;20049;-72
2022/10/09 05:44:28;;;;;;;14.80;6.68;;;6.90;99.90;;;;;;5022912;28;20052;-72
2022/10/09 05:46:54;;;;;;;10.95;7.00;;;6.80;99.90;;;;;;5016020;28;20497;-72
2022/10/09 05:49:20;;;;;;;12.13;6.65;;;6.80;99.90;;;;;;5001250;28;20778;-72
2022/10/09 05:51:45;;;;;;;14.60;7.03;;;6.90;99.90;;;;;;5001950;28;20046;-72
2022/10/09 05:54:14;;;;;;;10.57;6.22;;;6.90;99.90;;;;;;5004330;28;20046;-72
2022/10/09 05:56:40;;;;;;;11.15;6.50;;;6.80;99.90;;;;;;4988563;28;20057;-72
2022/10/09 05:59:07;;;;;;;13.93;6.90;;;6.80;99.90;;;;;;5005161;28;20469;-72
2022/10/09 06:01:42;;;;;;;13.75;6.78;;;6.90;99.90;;;;;;5001547;28;20046;-72
2022/10/09 06:04:12;;;;;;;14.85;7.05;;;6.80;99.90;;;;;;5003271;28;20485;-71
2022/10/09 06:06:38;;;;;;;12.48;6.80;;;6.80;99.90;;;;;;5005453;28;20050;-72
2022/10/09 06:09:06;;;;;;;13.23;7.05;;;6.80;99.90;;;;;;5005771;28;20568;-72
2022/10/09 06:11:34;;;;;;;14.95;7.13;;;6.80;99.90;;;;;;4997895;28;20045;-72
2022/10/09 06:14:01;;;;;;;15.90;7.20;;;6.80;99.90;;;;;;4998667;28;20395;-71
2022/10/09 06:16:33;;;;;;;15.70;7.78;;;6.90;99.90;;;;;;5000917;28;20447;-71
2022/10/09 06:19:00;;;;;;;15.10;7.88;;;6.90;99.90;;;;;;5003346;28;20065;-72
2022/10/09 06:21:27;;;;;;;14.50;7.68;;;6.90;99.90;;;;;;4983433;28;20053;-71
2022/10/09 06:24:00;;;;;;;14.10;7.40;;;6.90;99.90;;;;;;5006295;28;20045;-71
2022/10/09 06:26:28;;;;;;;;;;;7.00;99.90;;;;;;5002502;28;20045;-71
2022/10/09 06:28:54;;;;;;;13.60;7.35;;;7.00;99.90;;;;;;4999971;28;19921;-72
2022/10/09 06:31:25;;;;;;;14.02;7.13;;;7.10;99.90;;;;;;4994858;28;20386;-72
2022/10/09 06:33:51;;;;;;;14.52;8.65;;;7.10;99.90;;;;;;5006189;28;20523;-71
2022/10/09 06:36:28;;;;;;;17.85;8.07;;;7.10;99.90;;;;;;4994083;28;20373;-72
2022/10/09 06:38:54;;;;;;;13.13;7.57;;;7.20;99.90;;;;;;4993923;28;20050;-71
2022/10/09 06:41:25;;;;;;;15.57;7.18;;;7.10;99.90;;;;;;4983326;28;20864;-71
2022/10/09 06:43:56;;;;;;;14.63;7.80;;;7.20;99.90;;;;;;4986847;28;20763;-71
2022/10/09 06:46:24;;;;;;;16.27;7.82;;;7.20;99.90;;;;;;4992318;28;20049;-71
2022/10/09 06:48:50;;;;;;;15.75;7.22;;;7.20;99.90;;;;;;5003513;28;20070;-70
2022/10/09 06:51:19;;;;;;;14.70;7.97;;;7.30;99.90;;;;;;4993988;28;20053;-71
2022/10/09 06:53:53;;;;;;;11.48;7.65;;;7.30;99.90;;;;;;4998952;28;20401;-71
2022/10/09 06:56:21;;;;;;;19.23;7.45;;;7.30;99.90;;;;;;5004335;28;20045;-71
2022/10/09 06:58:47;;;;;;;18.95;8.27;;;7.40;99.90;;;;;;5000953;28;20157;-71
2022/10/09 07:01:18;;;;;;;15.63;8.30;;;7.50;99.90;;;;;;4995836;28;20045;-71
2022/10/09 07:03:46;;;;;;;14.45;8.48;;;7.60;99.90;;;;;;4999844;28;20045;-71
2022/10/09 07:06:21;;;;;;;14.63;8.82;;;7.70;99.90;;;;;;5004268;28;20094;-71
2022/10/09 07:08:49;;;;;;;18.73;8.85;;;7.80;99.90;;;;;;5007031;28;20042;-71
2022/10/09 07:11:21;;;;;;;19.13;9.75;;;7.90;99.90;;;;;;4993368;28;20050;-70
2022/10/09 07:13:48;;;;;;;16.73;8.95;;;8.00;99.90;;;;;;4997471;28;20104;-71
2022/10/09 07:16:21;;;;;;;17.92;9.27;;;8.10;99.90;;;;;;4999657;28;20816;-71
2022/10/09 07:18:47;;;;;;;15.38;9.80;;;8.30;99.90;;;;;;4999391;28;20042;-71
2022/10/09 07:21:14;;;;;;;16.70;9.02;;;8.40;99.90;;;;;;5004120;28;20054;-72
2022/10/09 07:23:40;;;;;;;19.95;9.05;;;8.50;99.90;;;;;;4991512;28;20038;-72
2022/10/09 07:26:13;;;;;;;17.60;9.00;;;8.70;99.90;;;;;;4998268;28;20038;-71
2022/10/09 07:28:40;;;;;;;15.50;9.60;;;8.80;99.90;;;;;;4997753;28;20061;-71
2022/10/09 07:31:06;;;;;;;15.30;8.70;;;8.80;99.90;;;;;;4998120;28;20042;-72
2022/10/09 07:33:32;;;;;;;14.32;8.50;;;9.00;99.90;;;;;;4995625;28;20444;-72
2022/10/09 07:35:59;;;;;;;13.65;8.13;;;9.10;99.90;;;;;;4998785;28;20050;-71
2022/10/09 07:38:26;;;;;;;14.95;8.35;;;9.20;99.90;;;;;;5001718;28;20623;-72
2022/10/09 07:40:52;;;;;;;13.15;7.68;;;9.20;99.90;;;;;;4993674;28;20052;-72
2022/10/09 07:43:18;;;;;;;14.90;8.32;;;9.30;99.90;;;;;;5000209;28;20413;-71
2022/10/09 07:45:44;;;;;;;10.68;7.05;;;9.40;99.90;;;;;;5001591;28;20041;-72
2022/10/09 07:48:10;;;;;;;13.18;8.20;;;9.50;99.90;;;;;;5009003;28;20378;-71
2022/10/09 07:50:36;;;;;;;10.85;6.70;;;9.60;99.90;;;;;;4999238;28;20079;-73
2022/10/09 07:53:02;;;;;;;14.55;7.90;;;9.70;99.90;;;;;;4993588;28;20046;-71
2022/10/09 07:55:28;;;;;;;14.50;7.03;;;9.90;99.90;;;;;;5001286;28;20073;-70
2022/10/09 07:57:53;;;;;;;11.15;6.20;;;9.90;99.90;;;;;;4993194;28;20050;-71
2022/10/09 08:00:19;;;;;;;11.77;5.32;;;10.00;99.90;;;;;;4995259;28;20717;-72
2022/10/09 08:02:44;;;;;;;10.82;5.25;;;10.10;99.90;;;;;;4993737;28;20123;-71
2022/10/09 08:05:10;;;;;;;10.45;5.47;;;10.20;99.90;;;;;;4998305;28;20539;-71
2022/10/09 08:07:36;;;;;;;12.68;6.43;;;10.20;99.90;;;;;;4993482;28;20049;-71
2022/10/09 08:10:03;;;;;;;16.05;5.70;;;10.40;99.90;;;;;;4997123;28;20445;-71
2022/10/09 08:12:28;;;;;;;10.18;5.13;;;10.40;99.90;;;;;;4995300;28;20069;-71
2022/10/09 08:14:54;;;;;;;17.00;5.10;;;10.40;99.90;;;;;;5005064;28;20128;-72
2022/10/09 08:17:20;;;;;;;15.32;5.95;;;10.50;99.90;;;;;;4992634;28;20061;-69
2022/10/09 08:19:45;;;;;;;10.63;5.78;;;10.60;99.90;;;;;;5001575;28;20057;-69
2022/10/09 08:22:11;;;;;;;17.95;7.20;;;10.60;99.90;;;;;;4998427;28;20094;-72
2022/10/09 08:24:37;;;;;;;9.32;4.60;;;10.70;99.90;;;;;;4995947;28;20046;-70
2022/10/09 08:27:03;;;;;;;9.35;4.88;;;10.70;99.90;;;;;;5003420;28;20050;-70
2022/10/09 08:29:29;;;;;;;13.27;5.55;;;10.90;99.90;;;;;;4993692;28;20111;-71
2022/10/09 08:31:54;;;;;;;9.95;4.65;;;10.90;99.90;;;;;;4994601;28;20196;-71
2022/10/09 08:34:20;;;;;;;10.25;4.50;;;11.00;99.90;;;;;;4993166;28;20045;-71
2022/10/09 08:36:46;;;;;;;11.68;4.40;;;11.00;99.90;;;;;;4990994;28;20050;-70
2022/10/09 08:39:12;;;;;;;11.48;4.60;;;11.00;99.90;;;;;;5004326;28;20046;-71
2022/10/09 08:41:41;;;;;;;9.40;4.55;;;11.10;99.90;;;;;;5003105;28;20049;-71
2022/10/09 08:44:12;;;;;;;12.73;4.38;;;11.20;99.90;;;;;;5002889;28;20559;-70
2022/10/09 08:47:02;;;;;;;10.98;4.38;;;11.20;99.90;;;;;;5000605;28;20041;-71
2022/10/09 08:49:55;;;;;;;13.10;4.63;;;11.30;99.90;;;;;;5003228;28;20046;-71
2022/10/09 08:52:34;;;;;;;9.93;4.50;;;11.40;99.90;;;;;;4994422;28;20070;-72
2022/10/09 08:55:14;;;;;;;11.80;4.28;;;11.50;99.90;;;;;;4995962;28;20077;-72
2022/10/09 08:57:40;;;;;;;14.05;5.45;;;11.50;99.90;;;;;;4992913;28;20526;-70
2022/10/09 09:00:14;;;;;;;10.38;4.40;;;11.60;99.90;;;;;;4991340;28;20382;-71
2022/10/09 09:02:56;;;;;;;9.00;4.22;;;11.60;99.90;;;;;;4996477;28;20455;-72
2022/10/09 09:05:40;;;;;;;14.48;4.15;;;11.70;99.90;;;;;;4987222;28;20061;-73
2022/10/09 09:08:18;;;;;;;10.88;4.07;;;11.70;99.90;;;;;;4990743;28;20064;-72
2022/10/09 09:10:50;;;;;;;16.23;4.40;;;11.80;99.90;;;;;;4998898;28;20042;-72
2022/10/09 09:13:35;;;;;;;10.80;4.13;;;11.90;99.90;;;;;;4995574;28;20034;-72
2022/10/09 09:16:13;;;;;;;13.02;4.18;;;11.90;99.90;;;;;;4990213;28;20125;-72
2022/10/09 09:18:39;;;;;;;8.32;3.85;;;12.10;99.90;;;;;;4995597;28;20041;-73
2022/10/09 09:21:28;;;;;;;9.07;3.53;;;12.20;99.90;;;;;;4992826;28;20063;-72
2022/10/09 09:23:56;;;;;;;9.23;3.70;;;12.30;99.90;;;;;;4993208;28;20046;-72
2022/10/09 09:26:22;;;;;;;9.88;3.72;;;12.40;99.90;;;;;;4994857;28;20096;-72
2022/10/09 09:28:52;;;;;;;8.98;3.30;;;12.40;99.90;;;;;;4994305;28;20049;-72
2022/10/09 09:31:22;;;;;;;12.02;3.60;;;12.50;99.90;;;;;;4995152;28;20042;-72
2022/10/09 09:33:58;;;;;;;7.50;2.63;;;12.60;99.90;;;;;;4992276;28;20087;-71
2022/10/09 09:36:30;;;;;;;10.98;3.58;;;12.70;99.90;;;;;;4992578;28;20048;-72
2022/10/09 09:38:55;;;;;;;13.93;3.30;;;12.80;99.90;;;;;;4993878;28;20049;-72
2022/10/09 09:41:21;;;;;;;15.88;4.13;;;12.90;99.90;;;;;;4992204;28;20049;-71
2022/10/09 09:43:47;;;;;;;9.35;3.40;;;12.90;99.90;;;;;;4996191;28;20060;-72
2022/10/09 09:46:19;;;;;;;12.43;3.53;;;13.00;99.90;;;;;;4992385;28;20049;-73
2022/10/09 09:48:47;;;;;;;8.50;3.45;;;13.00;99.90;;;;;;4996706;28;20045;-73
2022/10/09 09:51:29;;;;;;;9.85;4.05;;;13.10;99.90;;;;;;4998499;28;20045;-73
2022/10/09 09:53:59;;;;;;;10.48;3.72;;;13.20;99.90;;;;;;4993617;28;20073;-73
2022/10/09 09:56:38;;;;;;;11.13;3.80;;;13.30;99.90;;;;;;4997630;28;20038;-73
2022/10/09 09:59:05;;;;;;;13.93;4.18;;;13.30;99.90;;;;;;5003612;28;20520;-73
2022/10/09 10:01:33;;;;;;;9.00;3.28;;;13.30;99.90;;;;;;4998810;28;20045;-73
2022/10/09 10:04:02;;;;;;;12.82;3.50;;;13.40;99.90;;;;;;5013892;28;20616;-74
2022/10/09 10:06:40;;;;;;;8.45;2.80;;;13.50;99.90;;;;;;4999994;28;20533;-74
2022/10/09 10:09:17;;;;;;;8.68;3.00;;;13.50;99.90;;;;;;4998428;28;20124;-74
2022/10/09 10:12:05;;;;;;;7.63;3.17;;;13.50;99.90;;;;;;5001152;28;20042;-74
2022/10/09 10:14:34;;;;;;;6.55;2.65;;;13.50;99.90;;;;;;4998482;28;20077;-73
2022/10/09 10:17:01;;;;;;;7.85;2.58;;;13.60;99.90;;;;;;4999831;28;20053;-73
2022/10/09 10:19:28;;;;;;;9.18;2.67;;;13.70;99.90;;;;;;5000394;28;20046;-73
2022/10/09 10:21:56;;;;;;;9.95;2.83;;;13.70;99.90;;;;;;4997201;28;20033;-74
2022/10/09 10:24:37;;;;;;;9.25;2.50;;;13.70;99.90;;;;;;5002850;28;20041;-70
2022/10/09 10:27:28;;;;;;;10.48;2.85;;;13.80;99.90;;;;;;5003150;28;20042;-72
2022/10/09 10:29:59;;;;;;;7.20;2.47;;;13.90;99.90;;;;;;4997357;28;20088;-73
2022/10/09 10:32:41;;;;;;;11.35;2.47;;;13.90;99.90;;;;;;4999889;28;20046;-73
2022/10/09 10:35:13;;;;;;;14.18;2.90;;;13.90;99.90;;;;;;4999994;28;20053;-72
2022/10/09 10:37:42;;;;;;;10.68;2.17;;;14.00;99.90;;;;;;5001223;28;20513;-72
2022/10/09 10:40:19;;;;;;;12.00;3.15;;;14.00;99.90;;;;;;5007241;28;20117;-72
2022/10/09 10:43:09;;;;;;;9.57;2.33;;;14.00;99.90;;;;;;5008213;28;20046;-73
2022/10/09 10:46:06;;;;;;;13.07;2.60;;;14.00;99.90;;;;;;4998793;28;20501;-71
2022/10/09 10:48:47;;;;;;;9.65;2.20;;;14.10;99.90;;;;;;4992603;28;20358;-72
2022/10/09 10:51:34;;;;;;;9.40;2.28;;;14.10;99.90;;;;;;4990258;28;20481;-72
2022/10/09 10:54:05;;;;;;;7.53;2.17;;;14.10;99.90;;;;;;4993996;28;20468;-72
2022/10/09 10:56:55;;;;;;;8.45;2.08;;;14.20;99.90;;;;;;5001491;28;20091;-72
2022/10/09 10:59:36;;;;;;;11.77;2.30;;;14.20;99.90;;;;;;5005800;28;21138;-72
2022/10/09 11:02:31;;;;;;;6.28;1.60;;;14.10;99.90;;;;;;4998229;28;20048;-71
2022/10/09 11:05:05;;;;;;;12.68;1.85;;;14.20;99.90;;;;;;4991458;28;20429;-71
2022/10/09 11:08:03;;;;;;;8.57;1.92;;;14.20;99.90;;;;;;5001752;28;20056;-72
2022/10/09 11:10:52;;;;;;;9.43;2.45;;;14.30;99.90;;;;;;4999638;28;20493;-72
2022/10/09 11:13:24;;;;;;;11.82;2.40;;;14.30;99.90;;;;;;5010049;28;20042;-72
2022/10/09 11:15:56;;;;;;;6.47;2.20;;;14.40;99.90;;;;;;4992046;28;20038;-74
2022/10/09 11:18:31;;;;;;;9.05;2.08;;;14.50;99.90;;;;;;4997291;28;20035;-71
2022/10/09 11:21:21;;;;;;;7.10;1.70;;;14.60;99.90;;;;;;4998303;28;20521;-74
2022/10/09 11:23:47;;;;;;;7.05;1.70;;;14.60;99.90;;;;;;4996490;28;20139;-70
2022/10/09 11:26:21;;;;;;;9.40;2.13;;;14.70;99.90;;;;;;5001964;28;20654;-72
2022/10/09 11:29:04;;;;;;;11.27;2.53;;;14.70;99.90;;;;;;5004253;28;20698;-72
2022/10/09 11:31:41;;;;;;;10.05;2.22;;;14.80;99.90;;;;;;5006518;28;20571;-72
2022/10/09 11:34:20;;;;;;;7.32;1.90;;;14.80;99.90;;;;;;5001324;28;20515;-72
2022/10/09 11:36:46;;;;;;;8.55;1.80;;;14.90;99.90;;;;;;4997416;28;20038;-73
2022/10/09 11:39:21;;;;;;;8.60;2.25;;;14.90;99.90;;;;;;4994764;28;20049;-73
2022/10/09 11:41:49;;;;;;;7.60;2.25;;;14.90;99.90;;;;;;4993283;28;20042;-73
2022/10/09 11:44:32;;;;;;;12.68;2.70;;;14.90;99.90;;;;;;4989672;28;20042;-74
2022/10/09 11:47:00;;;;;;;7.93;1.90;;;15.00;99.90;;;;;;4999611;28;20103;-74
2022/10/09 11:50:13;;;;;;;8.88;2.15;;;15.00;99.90;;;;;;4991488;28;20042;-74
2022/10/09 11:53:17;;;;;;;6.75;2.13;;;15.10;99.90;;;;;;4996637;28;20050;-75
2022/10/09 11:55:43;;;;;;;5.57;1.92;;;15.20;99.90;;;;;;4996684;28;20568;-73
2022/10/09 11:58:23;;;;;;;8.27;2.05;;;15.10;99.90;;;;;;4992880;28;20046;-73
2022/10/09 12:00:52;;;;;;;5.75;1.70;;;15.20;99.90;;;;;;4997430;28;20100;-72
2022/10/09 12:03:32;;;;;;;8.30;1.60;;;15.20;99.90;;;;;;4999022;28;20046;-72
2022/10/09 12:06:08;;;;;;;7.32;2.00;;;15.30;99.90;;;;;;4998191;28;20042;-72
2022/10/09 12:08:36;;;;;;;7.65;1.85;;;15.30;99.90;;;;;;4996076;28;20054;-72
2022/10/09 12:11:14;;;;;;;7.93;1.80;;;15.30;99.90;;;;;;4998863;28;20050;-71
2022/10/09 12:13:50;;;;;;;5.93;1.60;;;15.40;99.90;;;;;;4997204;28;20049;-72
2022/10/09 12:16:34;;;;;;;8.80;2.10;;;15.50;99.90;;;;;;4995375;28;20037;-74
2022/10/09 12:19:02;;;;;;;6.68;1.70;;;15.50;99.90;;;;;;4997633;28;20524;-72
2022/10/09 12:21:35;;;;;;;5.47;1.75;;;15.60;99.90;;;;;;4992872;28;20061;-72
2022/10/09 12:24:01;;;;;;;;;;;15.70;99.90;;;;;;4996413;28;20068;-71
2022/10/09 12:26:28;;;;;;;8.27;2.10;;;15.70;99.90;;;;;;5001281;28;20380;-72
2022/10/09 12:29:01;;;;;;;12.07;2.83;;;15.70;99.90;;;;;;4994882;28;20043;-71
2022/10/09 12:31:35;;;;;;;6.95;2.33;;;15.70;99.90;;;;;;4996388;28;20050;-71
2022/10/09 12:34:13;;;;;;;10.27;2.67;;;15.70;99.90;;;;;;4989439;28;20050;-71
2022/10/09 12:36:39;;;;;;;8.05;2.08;;;15.80;99.90;;;;;;4993760;28;20272;-71
2022/10/09 12:39:36;;;;;;;7.60;2.60;;;15.80;99.90;;;;;;5001529;28;20310;-72
2022/10/09 12:42:02;;;;;;;7.70;2.30;;;15.90;99.90;;;;;;4993365;28;20045;-71
2022/10/09 12:44:32;;;;;;;5.35;2.40;;;15.90;99.90;;;;;;4998431;28;20116;-71
2022/10/09 12:47:06;;;;;;;7.38;2.35;;;16.00;99.90;;;;;;4992958;28;20052;-72
2022/10/09 12:49:35;;;;;;;6.25;2.13;;;16.10;99.90;;;;;;4997200;28;20045;-71
2022/10/09 12:52:01;;;;;;;8.25;2.00;;;16.10;99.90;;;;;;4997185;28;20046;-72
2022/10/09 12:54:29;;;;;;;6.75;2.33;;;16.10;99.90;;;;;;4994777;28;20485;-71
2022/10/09 12:56:56;;;;;;;7.47;2.30;;;16.10;99.90;;;;;;4998609;28;20050;-71
2022/10/09 12:59:24;;;;;;;6.50;2.50;;;16.10;99.90;;;;;;4998308;28;20073;-71
2022/10/09 13:01:57;;;;;;;10.23;2.30;;;16.10;99.90;;;;;;4996025;28;20033;-72
2022/10/09 13:04:25;;;;;;;5.82;2.00;;;16.10;99.90;;;;;;4992763;28;20092;-72
2022/10/09 13:06:51;;;;;;;9.80;2.28;;;16.10;99.90;;;;;;4996486;28;20717;-72